aviador You're here:

CYRL Decoded Metar

RED LAKE AIRPORT in ON, CANADA
Report Time2017-11-20 21:00:00
UTC Time2017-11-20 21:16:09
Flight Rules ifr IFR
Wind120° at 08 kt
W.Decomp.*RWY 08: 6.2 kt HW 5.0 kt RCW
W.Rank120° ranks 9
Current wind is above 120° avg. (6.7)
Visibility2012 m
Phenomena:Low Drifting Snow
Light Snow
Clouds:Overcast 006 Hf
Expected CloudBase > 400 ft AGL from Temp-Dew spread
Ceiling600 ft
Temp-5°C (ISA -18)
Dew Point-6°C (93% RH)
AAT-10.6°C
QNH986 hPa
Density Alt95 ft
Elevation1,257 ft
Report Wrong Elevation
Raw Report
CYRL 202100Z 12008KT 1 1/4SM -SN DRSN OVC006 M05/M06 A2913 RMK
BLSN4SC4 SLP891=

Extra information for CYRL:More info

Metar Taf Metar & Taf Last 4 Metars F.Rules Stats Wind Profile Meteogram Temp Stats Airport Information Weather charts Add Link Nearby VenuesMetar ALERT Operation Metar Decoded Social comments